Terminal Aerodrome Forecast
Issued by NWS Upton, NY

Home | Current Version | Previous Version | Text Only | Print | Product List | Glossary On
Versions: 1 2 3 4 5 6 7 8 9 10 11 12 13 14 15 16 17 18 19 20 21 22 23 24 25 26 27 28 29 30 31
000
FTUS41 KOKX 201938 AAA
TAFJFK
TAF AMD
KJFK 201938Z 2020/2124 27016G23KT P6SM FEW050
     FM202200 27014G21KT P6SM FEW050 FEW250
     FM210200 25012KT P6SM SKC
     FM210800 22010KT P6SM FEW300
     FM211300 22012G22KT P6SM FEW250=

USA.gov is the U.S. government's official web portal to all federal, state and local government web resources and services.